Time,TemperatureF,DewpointF,PressureIn,WindDirection,WindDirectionDegrees,WindSpeedMPH,WindSpeedGustMPH,Humidity,HourlyPrecipIn,Conditions,Clouds,dailyrainin,SoftwareType,DateUTC
2013-07-14 00:03:00,66.4,66.0,30.50,NW,321,0.0,0.0,98,0.00,,,0.16,weatherlink.com 1.10,2013-07-14 04:03:00,
2013-07-14 00:18:00,66.5,66.0,30.49,NW,319,0.0,0.0,98,0.00,,,0.16,weatherlink.com 1.10,2013-07-14 04:18:00,
2013-07-14 00:33:00,66.6,66.0,30.50,NW,319,0.0,0.0,99,0.00,,,0.16,weatherlink.com 1.10,2013-07-14 04:33:00,
2013-07-14 00:48:00,66.6,66.0,30.50,NW,320,0.0,0.0,98,0.00,,,0.16,weatherlink.com 1.10,2013-07-14 04:48:00,
2013-07-14 01:03:00,66.6,66.0,30.50,NW,319,0.0,0.0,99,0.00,,,0.16,weatherlink.com 1.10,2013-07-14 05:03:00,
2013-07-14 01:18:00,66.6,66.0,30.50,NW,321,0.0,0.0,99,0.00,,,0.16,weatherlink.com 1.10,2013-07-14 05:18:00,
2013-07-14 01:33:00,66.6,66.0,30.51,NW,320,0.0,0.0,99,0.00,,,0.16,weatherlink.com 1.10,2013-07-14 05:33:00,
2013-07-14 01:48:00,66.4,66.0,30.50,NW,321,0.0,0.0,99,0.00,,,0.16,weatherlink.com 1.10,2013-07-14 05:48:00,
2013-07-14 02:03:00,66.0,66.0,30.50,NW,319,0.0,0.0,98,0.00,,,0.16,weatherlink.com 1.10,2013-07-14 06:03:00,
2013-07-14 02:18:00,66.1,66.0,30.50,NW,320,0.0,0.0,99,0.00,,,0.16,weatherlink.com 1.10,2013-07-14 06:18:00,
2013-07-14 02:33:00,66.2,66.0,30.50,NW,321,0.0,0.0,99,0.00,,,0.16,weatherlink.com 1.10,2013-07-14 06:33:00,
2013-07-14 02:48:00,65.9,66.0,30.50,NW,319,0.0,0.0,99,0.00,,,0.00,weatherlink.com 1.10,2013-07-14 06:48:00,
2013-07-14 03:03:00,65.2,65.0,30.50,NW,321,0.0,0.0,98,0.00,,,0.00,weatherlink.com 1.10,2013-07-14 07:03:00,
2013-07-14 03:18:00,64.9,65.0,30.50,NW,320,0.0,0.0,99,0.01,,,0.01,weatherlink.com 1.10,2013-07-14 07:18:00,
2013-07-14 03:33:00,64.7,64.0,30.50,NW,319,0.0,0.0,99,0.01,,,0.01,weatherlink.com 1.10,2013-07-14 07:33:00,
2013-07-14 03:48:00,64.2,64.0,30.49,NW,321,0.0,0.0,99,0.01,,,0.01,weatherlink.com 1.10,2013-07-14 07:48:00,
2013-07-14 04:04:00,63.9,64.0,30.50,NW,321,0.0,0.0,99,0.01,,,0.01,weatherlink.com 1.10,2013-07-14 08:04:00,
2013-07-14 04:19:00,63.9,64.0,30.49,NW,321,0.0,0.0,99,0.00,,,0.01,weatherlink.com 1.10,2013-07-14 08:19:00,
2013-07-14 04:34:00,63.8,64.0,30.49,NW,320,0.0,0.0,99,0.00,,,0.01,weatherlink.com 1.10,2013-07-14 08:34:00,
2013-07-14 04:49:00,63.9,64.0,30.49,NW,319,0.0,0.0,99,0.00,,,0.01,weatherlink.com 1.10,2013-07-14 08:49:00,
2013-07-14 05:04:00,63.8,64.0,30.48,NW,320,0.0,0.0,99,0.00,,,0.01,weatherlink.com 1.10,2013-07-14 09:04:00,
2013-07-14 05:19:00,63.5,63.0,30.48,NW,320,0.0,0.0,99,0.00,,,0.01,weatherlink.com 1.10,2013-07-14 09:19:00,
2013-07-14 05:34:00,63.9,64.0,30.49,NW,320,0.0,0.0,99,0.00,,,0.01,weatherlink.com 1.10,2013-07-14 09:34:00,
2013-07-14 05:49:00,63.8,64.0,30.50,NW,319,0.0,0.0,99,0.00,,,0.01,weatherlink.com 1.10,2013-07-14 09:49:00,
2013-07-14 06:04:00,63.4,63.0,30.50,NW,320,0.0,0.0,99,0.00,,,0.01,weatherlink.com 1.10,2013-07-14 10:04:00,
2013-07-14 06:19:00,63.4,63.0,30.50,NW,320,0.0,0.0,99,0.00,,,0.01,weatherlink.com 1.10,2013-07-14 10:19:00,
2013-07-14 06:34:00,63.3,63.0,30.51,NW,320,0.0,0.0,99,0.00,,,0.01,weatherlink.com 1.10,2013-07-14 10:34:00,
2013-07-14 06:49:00,63.5,63.0,30.51,NW,319,0.0,0.0,99,0.00,,,0.01,weatherlink.com 1.10,2013-07-14 10:49:00,
2013-07-14 07:04:00,63.9,64.0,30.51,NW,321,0.0,0.0,99,0.00,,,0.01,weatherlink.com 1.10,2013-07-14 11:04:00,
2013-07-14 07:19:00,64.7,65.0,30.51,NW,320,0.0,0.0,100,0.00,,,0.01,weatherlink.com 1.10,2013-07-14 11:19:00,
2013-07-14 07:34:00,65.3,65.0,30.52,NW,319,0.0,0.0,100,0.00,,,0.01,weatherlink.com 1.10,2013-07-14 11:34:00,
2013-07-14 07:49:00,65.6,66.0,30.52,SW,228,0.0,0.0,100,0.00,,,0.01,weatherlink.com 1.10,2013-07-14 11:49:00,
2013-07-14 08:04:00,67.0,67.0,30.52,NNW,345,2.0,4.0,100,0.00,,,0.01,weatherlink.com 1.10,2013-07-14 12:04:00,
2013-07-14 08:19:00,67.8,68.0,30.52,WSW,255,0.0,4.0,100,0.00,,,0.01,weatherlink.com 1.10,2013-07-14 12:19:00,
2013-07-14 08:34:00,68.1,68.0,30.53,NW,308,0.0,1.0,99,0.00,,,0.01,weatherlink.com 1.10,2013-07-14 12:34:00,
2013-07-14 08:49:00,68.8,69.0,30.52,NNW,345,0.0,4.0,99,0.00,,,0.01,weatherlink.com 1.10,2013-07-14 12:49:00,
2013-07-14 09:04:00,69.4,69.0,30.52,NNW,345,0.0,1.0,98,0.00,,,0.01,weatherlink.com 1.10,2013-07-14 13:04:00,
2013-07-14 09:19:00,71.1,70.0,30.51,NNW,345,0.0,0.0,97,0.00,,,0.01,weatherlink.com 1.10,2013-07-14 13:19:00,
2013-07-14 09:34:00,74.0,70.0,30.51,NW,309,1.0,5.0,86,0.00,,,0.01,weatherlink.com 1.10,2013-07-14 13:34:00,
2013-07-14 09:49:00,74.7,70.0,30.51,WSW,238,0.0,4.0,86,0.00,,,0.01,weatherlink.com 1.10,2013-07-14 13:49:00,
2013-07-14 10:04:00,75.0,70.0,30.51,SW,231,2.0,3.0,84,0.00,,,0.01,weatherlink.com 1.10,2013-07-14 14:04:00,
2013-07-14 10:19:00,76.2,71.0,30.51,East,84,1.0,5.0,83,0.00,,,0.01,weatherlink.com 1.10,2013-07-14 14:19:00,
2013-07-14 10:34:00,76.2,70.0,30.50,NW,309,0.0,6.0,81,0.00,,,0.01,weatherlink.com 1.10,2013-07-14 14:34:00,
2013-07-14 10:49:00,77.5,70.0,30.50,NNE,18,0.0,3.0,78,0.00,,,0.01,weatherlink.com 1.10,2013-07-14 14:49:00,
2013-07-14 11:04:00,77.6,70.0,30.50,SW,222,0.0,4.0,78,0.00,,,0.01,weatherlink.com 1.10,2013-07-14 15:04:00,
2013-07-14 11:19:00,77.4,71.0,30.50,ESE,122,0.0,1.0,80,0.00,,,0.01,weatherlink.com 1.10,2013-07-14 15:19:00,
2013-07-14 11:34:00,77.9,72.0,30.49,SE,142,4.0,4.0,81,0.00,,,0.01,weatherlink.com 1.10,2013-07-14 15:34:00,
2013-07-14 11:49:00,79.0,71.0,30.49,SE,136,2.0,3.0,76,0.00,,,0.01,weatherlink.com 1.10,2013-07-14 15:49:00,
2013-07-14 12:04:00,78.9,71.0,30.49,WSW,246,1.0,2.0,77,0.00,,,0.01,weatherlink.com 1.10,2013-07-14 16:04:00,
2013-07-14 12:19:00,78.5,70.0,30.49,South,185,3.0,5.0,75,0.00,,,0.01,weatherlink.com 1.10,2013-07-14 16:19:00,
2013-07-14 12:34:00,79.8,71.0,30.48,ENE,73,2.0,9.0,75,0.00,,,0.01,weatherlink.com 1.10,2013-07-14 16:34:00,
2013-07-14 12:50:00,81.1,71.0,30.49,West,280,1.0,8.0,72,0.00,,,0.01,weatherlink.com 1.10,2013-07-14 16:50:00,
2013-07-14 13:05:00,79.9,71.0,30.48,ESE,121,3.0,4.0,75,0.00,,,0.01,weatherlink.com 1.10,2013-07-14 17:05:00,
2013-07-14 13:20:00,82.1,72.0,30.48,SE,127,1.0,5.0,71,0.00,,,0.01,weatherlink.com 1.10,2013-07-14 17:20:00,
2013-07-14 13:35:00,81.9,72.0,30.48,SW,229,1.0,2.0,73,0.00,,,0.01,weatherlink.com 1.10,2013-07-14 17:35:00,
2013-07-14 13:50:00,82.6,71.0,30.47,SW,219,0.0,4.0,69,0.00,,,0.01,weatherlink.com 1.10,2013-07-14 17:50:00,
2013-07-14 14:05:00,81.6,71.0,30.47,North,1,1.0,3.0,70,0.00,,,0.01,weatherlink.com 1.10,2013-07-14 18:05:00,
2013-07-14 14:20:00,80.7,72.0,30.46,West,278,0.0,2.0,74,0.00,,,0.01,weatherlink.com 1.10,2013-07-14 18:20:00,
2013-07-14 14:35:00,79.7,71.0,30.46,NW,319,1.0,3.0,74,0.00,,,0.01,weatherlink.com 1.10,2013-07-14 18:35:00,
2013-07-14 14:50:00,79.2,72.0,30.46,NW,314,0.0,5.0,78,0.00,,,0.01,weatherlink.com 1.10,2013-07-14 18:50:00,
2013-07-14 15:05:00,79.9,72.0,30.45,SW,233,0.0,5.0,76,0.00,,,0.01,weatherlink.com 1.10,2013-07-14 19:05:00,
2013-07-14 15:20:00,80.3,72.0,30.45,WSW,237,0.0,2.0,75,0.00,,,0.01,weatherlink.com 1.10,2013-07-14 19:20:00,
2013-07-14 15:35:00,79.8,72.0,30.45,South,176,0.0,2.0,77,0.00,,,0.01,weatherlink.com 1.10,2013-07-14 19:35:00,
2013-07-14 15:50:00,80.9,72.0,30.44,WSW,250,0.0,6.0,73,0.00,,,0.01,weatherlink.com 1.10,2013-07-14 19:50:00,
2013-07-14 16:05:00,81.5,72.0,30.43,SSW,212,2.0,4.0,73,0.00,,,0.01,weatherlink.com 1.10,2013-07-14 20:05:00,
2013-07-14 16:20:00,80.7,71.0,30.43,SSE,158,3.0,3.0,73,0.00,,,0.01,weatherlink.com 1.10,2013-07-14 20:20:00,
2013-07-14 16:35:00,81.1,72.0,30.43,SSW,198,1.0,3.0,74,0.00,,,0.01,weatherlink.com 1.10,2013-07-14 20:35:00,
2013-07-14 16:50:00,82.3,72.0,30.43,SSW,201,2.0,6.0,72,0.00,,,0.01,weatherlink.com 1.10,2013-07-14 20:50:00,
2013-07-14 17:05:00,80.9,72.0,30.43,South,187,1.0,4.0,73,0.00,,,0.01,weatherlink.com 1.10,2013-07-14 21:05:00,
2013-07-14 17:20:00,80.2,72.0,30.42,SSW,205,1.0,4.0,75,0.00,,,0.01,weatherlink.com 1.10,2013-07-14 21:20:00,
2013-07-14 17:35:00,79.7,71.0,30.42,SSE,150,1.0,3.0,74,0.00,,,0.01,weatherlink.com 1.10,2013-07-14 21:35:00,
2013-07-14 17:50:00,79.5,72.0,30.42,South,172,3.0,4.0,77,0.00,,,0.01,weatherlink.com 1.10,2013-07-14 21:50:00,
2013-07-14 18:05:00,79.1,71.0,30.42,North,358,1.0,4.0,76,0.00,,,0.01,weatherlink.com 1.10,2013-07-14 22:05:00,
2013-07-14 18:20:00,78.7,71.0,30.43,South,169,0.0,3.0,77,0.00,,,0.01,weatherlink.com 1.10,2013-07-14 22:20:00,
2013-07-14 18:35:00,78.2,72.0,30.43,SW,224,0.0,5.0,80,0.00,,,0.01,weatherlink.com 1.10,2013-07-14 22:35:00,
2013-07-14 18:50:00,78.3,71.0,30.43,SSE,152,0.0,4.0,78,0.00,,,0.01,weatherlink.com 1.10,2013-07-14 22:50:00,
2013-07-14 19:05:00,77.9,71.0,30.43,SSE,158,1.0,3.0,79,0.00,,,0.01,weatherlink.com 1.10,2013-07-14 23:05:00,
2013-07-14 19:20:00,77.4,71.0,30.43,SSE,149,0.0,1.0,80,0.00,,,0.01,weatherlink.com 1.10,2013-07-14 23:20:00,
2013-07-14 19:35:00,75.2,71.0,30.43,NNW,340,0.0,0.0,86,0.00,,,0.01,weatherlink.com 1.10,2013-07-14 23:35:00,
2013-07-14 19:50:00,73.6,70.0,30.43,NW,322,0.0,0.0,89,0.00,,,0.01,weatherlink.com 1.10,2013-07-14 23:50:00,
2013-07-14 20:05:00,72.6,70.0,30.43,NW,322,0.0,0.0,91,0.00,,,0.01,weatherlink.com 1.10,2013-07-15 00:05:00,
2013-07-14 20:20:00,71.8,69.0,30.43,NW,321,0.0,0.0,92,0.00,,,0.01,weatherlink.com 1.10,2013-07-15 00:20:00,
2013-07-14 20:35:00,71.4,69.0,30.44,NW,321,0.0,0.0,93,0.00,,,0.01,weatherlink.com 1.10,2013-07-15 00:35:00,
2013-07-14 20:50:00,71.2,69.0,30.44,NW,321,0.0,0.0,94,0.00,,,0.01,weatherlink.com 1.10,2013-07-15 00:50:00,
2013-07-14 21:05:00,70.9,69.0,30.43,NW,325,0.0,0.0,94,0.00,,,0.01,weatherlink.com 1.10,2013-07-15 01:05:00,
2013-07-14 21:20:00,70.7,69.0,30.44,NNW,334,0.0,0.0,95,0.00,,,0.01,weatherlink.com 1.10,2013-07-15 01:20:00,
2013-07-14 21:35:00,70.4,69.0,30.44,NNW,329,0.0,0.0,95,0.00,,,0.01,weatherlink.com 1.10,2013-07-15 01:35:00,
2013-07-14 21:50:00,70.7,69.0,30.45,NNW,328,0.0,0.0,95,0.00,,,0.01,weatherlink.com 1.10,2013-07-15 01:50:00,
2013-07-14 22:06:00,70.9,70.0,30.45,NNW,329,0.0,0.0,95,0.00,,,0.01,weatherlink.com 1.10,2013-07-15 02:06:00,
2013-07-14 22:21:00,71.0,70.0,30.45,NNW,329,0.0,0.0,95,0.00,,,0.01,weatherlink.com 1.10,2013-07-15 02:21:00,
2013-07-14 22:36:00,71.1,70.0,30.44,NNW,329,0.0,0.0,95,0.00,,,0.01,weatherlink.com 1.10,2013-07-15 02:36:00,
2013-07-14 22:51:00,71.0,70.0,30.44,NNW,329,0.0,0.0,95,0.00,,,0.01,weatherlink.com 1.10,2013-07-15 02:51:00,
2013-07-14 23:06:00,70.9,70.0,30.44,NNW,329,0.0,0.0,95,0.00,,,0.01,weatherlink.com 1.10,2013-07-15 03:06:00,
2013-07-14 23:21:00,70.8,69.0,30.44,NNW,328,0.0,0.0,95,0.00,,,0.01,weatherlink.com 1.10,2013-07-15 03:21:00,
2013-07-14 23:36:00,70.7,69.0,30.44,NNW,328,0.0,0.0,95,0.00,,,0.01,weatherlink.com 1.10,2013-07-15 03:36:00,
2013-07-14 23:51:00,70.7,69.0,30.44,NNW,328,0.0,0.0,95,0.00,,,0.01,weatherlink.com 1.10,2013-07-15 03:51:00,